sensor_id;sensor_type;location;lat;lon;timestamp;P1;durP1;ratioP1;P2;durP2;ratioP2
11171;SDS011;5642;50.830;12.082;2022-07-29T00:09:47;2.92;;;0.60;;
11171;SDS011;5642;50.830;12.082;2022-07-29T00:12:14;0.45;;;0.45;;
11171;SDS011;5642;50.830;12.082;2022-07-29T00:14:40;0.52;;;0.52;;
11171;SDS011;5642;50.830;12.082;2022-07-29T00:17:06;0.75;;;0.70;;
11171;SDS011;5642;50.830;12.082;2022-07-29T00:19:32;0.73;;;0.47;;
11171;SDS011;5642;50.830;12.082;2022-07-29T00:22:00;0.77;;;0.50;;
11171;SDS011;5642;50.830;12.082;2022-07-29T00:24:26;2.95;;;0.82;;
11171;SDS011;5642;50.830;12.082;2022-07-29T00:26:53;3.10;;;0.60;;
11171;SDS011;5642;50.830;12.082;2022-07-29T00:29:22;0.50;;;0.50;;
11171;SDS011;5642;50.830;12.082;2022-07-29T00:31:49;0.50;;;0.50;;
11171;SDS011;5642;50.830;12.082;2022-07-29T00:34:16;1.77;;;0.52;;
11171;SDS011;5642;50.830;12.082;2022-07-29T00:37:00;0.60;;;0.60;;
11171;SDS011;5642;50.830;12.082;2022-07-29T00:39:33;0.65;;;0.65;;
11171;SDS011;5642;50.830;12.082;2022-07-29T00:42:01;0.50;;;0.50;;
11171;SDS011;5642;50.830;12.082;2022-07-29T00:44:29;0.70;;;0.70;;
11171;SDS011;5642;50.830;12.082;2022-07-29T00:46:54;0.75;;;0.70;;
11171;SDS011;5642;50.830;12.082;2022-07-29T00:49:30;0.70;;;0.60;;
11171;SDS011;5642;50.830;12.082;2022-07-29T00:51:56;0.57;;;0.57;;
11171;SDS011;5642;50.830;12.082;2022-07-29T00:54:23;0.57;;;0.57;;
11171;SDS011;5642;50.830;12.082;2022-07-29T00:56:49;0.40;;;0.40;;
11171;SDS011;5642;50.830;12.082;2022-07-29T00:59:18;0.63;;;0.60;;
11171;SDS011;5642;50.830;12.082;2022-07-29T01:01:44;1.15;;;0.73;;
11171;SDS011;5642;50.830;12.082;2022-07-29T01:04:10;0.95;;;0.70;;
11171;SDS011;5642;50.830;12.082;2022-07-29T01:06:36;0.50;;;0.50;;
11171;SDS011;5642;50.830;12.082;2022-07-29T01:09:02;0.90;;;0.63;;
11171;SDS011;5642;50.830;12.082;2022-07-29T01:11:28;0.75;;;0.70;;
11171;SDS011;5642;50.830;12.082;2022-07-29T01:13:54;0.63;;;0.60;;
11171;SDS011;5642;50.830;12.082;2022-07-29T01:16:24;1.80;;;0.60;;
11171;SDS011;5642;50.830;12.082;2022-07-29T01:18:56;0.57;;;0.55;;
11171;SDS011;5642;50.830;12.082;2022-07-29T01:21:50;1.30;;;0.73;;
11171;SDS011;5642;50.830;12.082;2022-07-29T01:27:34;1.17;;;0.52;;
11171;SDS011;5642;50.830;12.082;2022-07-29T01:30:09;0.50;;;0.50;;
11171;SDS011;5642;50.830;12.082;2022-07-29T01:32:37;1.23;;;0.60;;
11171;SDS011;5642;50.830;12.082;2022-07-29T01:37:47;0.80;;;0.70;;
11171;SDS011;5642;50.830;12.082;2022-07-29T01:42:55;1.55;;;0.55;;
11171;SDS011;5642;50.830;12.082;2022-07-29T01:45:26;0.70;;;0.70;;
11171;SDS011;5642;50.830;12.082;2022-07-29T01:48:22;0.82;;;0.60;;
11171;SDS011;5642;50.830;12.082;2022-07-29T01:53:45;1.05;;;0.60;;
11171;SDS011;5642;50.830;12.082;2022-07-29T01:56:17;0.95;;;0.80;;
11171;SDS011;5642;50.830;12.082;2022-07-29T01:58:45;0.65;;;0.65;;
11171;SDS011;5642;50.830;12.082;2022-07-29T02:01:14;1.25;;;0.80;;
11171;SDS011;5642;50.830;12.082;2022-07-29T02:03:42;0.70;;;0.70;;
11171;SDS011;5642;50.830;12.082;2022-07-29T02:06:10;1.88;;;0.68;;
11171;SDS011;5642;50.830;12.082;2022-07-29T03:10:06;0.50;;;0.50;;
11171;SDS011;5642;50.830;12.082;2022-07-29T03:12:34;1.73;;;0.60;;
11171;SDS011;5642;50.830;12.082;2022-07-29T03:15:11;1.48;;;0.80;;
11171;SDS011;5642;50.830;12.082;2022-07-29T03:17:37;1.00;;;0.70;;
11171;SDS011;5642;50.830;12.082;2022-07-29T03:20:07;0.60;;;0.60;;
11171;SDS011;5642;50.830;12.082;2022-07-29T03:22:41;0.77;;;0.77;;
11171;SDS011;5642;50.830;12.082;2022-07-29T03:25:09;0.93;;;0.60;;
11171;SDS011;5642;50.830;12.082;2022-07-29T03:27:42;1.60;;;0.80;;
11171;SDS011;5642;50.830;12.082;2022-07-29T03:30:11;0.88;;;0.73;;
11171;SDS011;5642;50.830;12.082;2022-07-29T03:32:39;1.52;;;0.70;;
11171;SDS011;5642;50.830;12.082;2022-07-29T03:35:06;1.13;;;0.60;;
11171;SDS011;5642;50.830;12.082;2022-07-29T03:37:32;2.30;;;0.55;;
11171;SDS011;5642;50.830;12.082;2022-07-29T03:40:00;0.60;;;0.60;;
11171;SDS011;5642;50.830;12.082;2022-07-29T03:42:30;0.98;;;0.70;;
11171;SDS011;5642;50.830;12.082;2022-07-29T03:44:59;0.70;;;0.70;;
11171;SDS011;5642;50.830;12.082;2022-07-29T03:47:30;0.60;;;0.60;;
11171;SDS011;5642;50.830;12.082;2022-07-29T03:50:02;0.60;;;0.60;;
11171;SDS011;5642;50.830;12.082;2022-07-29T03:52:32;0.77;;;0.70;;
11171;SDS011;5642;50.830;12.082;2022-07-29T03:54:59;0.73;;;0.70;;
11171;SDS011;5642;50.830;12.082;2022-07-29T03:57:26;0.60;;;0.60;;
11171;SDS011;5642;50.830;12.082;2022-07-29T03:59:54;1.60;;;0.73;;
11171;SDS011;5642;50.830;12.082;2022-07-29T04:02:21;0.70;;;0.70;;
11171;SDS011;5642;50.830;12.082;2022-07-29T04:04:48;1.83;;;0.70;;
11171;SDS011;5642;50.830;12.082;2022-07-29T04:07:15;2.42;;;0.88;;
11171;SDS011;5642;50.830;12.082;2022-07-29T05:57:52;1.38;;;0.70;;
11171;SDS011;5642;50.830;12.082;2022-07-29T06:00:37;2.45;;;0.70;;
11171;SDS011;5642;50.830;12.082;2022-07-29T06:03:12;1.80;;;0.77;;
11171;SDS011;5642;50.830;12.082;2022-07-29T06:05:39;1.00;;;0.75;;
11171;SDS011;5642;50.830;12.082;2022-07-29T06:08:06;2.30;;;0.80;;
11171;SDS011;5642;50.830;12.082;2022-07-29T06:10:38;1.40;;;0.90;;
11171;SDS011;5642;50.830;12.082;2022-07-29T06:13:07;1.73;;;0.80;;
11171;SDS011;5642;50.830;12.082;2022-07-29T06:15:37;1.63;;;0.93;;
11171;SDS011;5642;50.830;12.082;2022-07-29T06:18:04;1.30;;;1.20;;
11171;SDS011;5642;50.830;12.082;2022-07-29T06:20:34;1.50;;;1.40;;
11171;SDS011;5642;50.830;12.082;2022-07-29T06:23:00;2.78;;;1.10;;
11171;SDS011;5642;50.830;12.082;2022-07-29T06:25:30;1.75;;;1.20;;
11171;SDS011;5642;50.830;12.082;2022-07-29T06:27:58;1.40;;;1.30;;
11171;SDS011;5642;50.830;12.082;2022-07-29T06:30:27;3.28;;;1.20;;
11171;SDS011;5642;50.830;12.082;2022-07-29T06:32:57;1.50;;;1.35;;
11171;SDS011;5642;50.830;12.082;2022-07-29T06:35:28;1.60;;;1.50;;
11171;SDS011;5642;50.830;12.082;2022-07-29T06:37:55;1.80;;;1.30;;
11171;SDS011;5642;50.830;12.082;2022-07-29T06:40:22;2.58;;;1.40;;
11171;SDS011;5642;50.830;12.082;2022-07-29T06:43:18;1.38;;;1.27;;
11171;SDS011;5642;50.830;12.082;2022-07-29T06:45:46;7.75;;;1.60;;
11171;SDS011;5642;50.830;12.082;2022-07-29T06:48:12;2.08;;;1.40;;
11171;SDS011;5642;50.830;12.082;2022-07-29T06:50:46;1.13;;;1.02;;
11171;SDS011;5642;50.830;12.082;2022-07-29T06:53:14;1.45;;;1.35;;
11171;SDS011;5642;50.830;12.082;2022-07-29T06:55:43;1.08;;;1.08;;
11171;SDS011;5642;50.830;12.082;2022-07-29T06:58:10;2.08;;;1.10;;
11171;SDS011;5642;50.830;12.082;2022-07-29T07:00:37;1.00;;;1.00;;
11171;SDS011;5642;50.830;12.082;2022-07-29T07:03:03;1.08;;;1.00;;
11171;SDS011;5642;50.830;12.082;2022-07-29T07:05:30;1.30;;;1.20;;
11171;SDS011;5642;50.830;12.082;2022-07-29T07:07:57;1.67;;;0.90;;
11171;SDS011;5642;50.830;12.082;2022-07-29T07:10:29;1.65;;;1.10;;
11171;SDS011;5642;50.830;12.082;2022-07-29T07:13:10;1.92;;;1.15;;
11171;SDS011;5642;50.830;12.082;2022-07-29T07:15:38;2.42;;;1.15;;
11171;SDS011;5642;50.830;12.082;2022-07-29T07:18:20;1.27;;;1.20;;
11171;SDS011;5642;50.830;12.082;2022-07-29T07:20:47;0.93;;;0.93;;
11171;SDS011;5642;50.830;12.082;2022-07-29T07:23:15;0.82;;;0.82;;
11171;SDS011;5642;50.830;12.082;2022-07-29T07:25:42;1.23;;;0.95;;
11171;SDS011;5642;50.830;12.082;2022-07-29T07:28:13;1.20;;;1.10;;
11171;SDS011;5642;50.830;12.082;2022-07-29T07:30:42;1.83;;;1.05;;
11171;SDS011;5642;50.830;12.082;2022-07-29T07:33:12;1.00;;;0.85;;
11171;SDS011;5642;50.830;12.082;2022-07-29T07:35:41;0.88;;;0.88;;
11171;SDS011;5642;50.830;12.082;2022-07-29T07:38:14;2.47;;;0.82;;
11171;SDS011;5642;50.830;12.082;2022-07-29T07:40:47;0.80;;;0.80;;
11171;SDS011;5642;50.830;12.082;2022-07-29T07:43:15;2.50;;;1.20;;
11171;SDS011;5642;50.830;12.082;2022-07-29T07:45:43;0.90;;;0.90;;
11171;SDS011;5642;50.830;12.082;2022-07-29T07:48:11;1.13;;;1.02;;
11171;SDS011;5642;50.830;12.082;2022-07-29T07:50:38;1.75;;;1.15;;
11171;SDS011;5642;50.830;12.082;2022-07-29T07:53:10;1.30;;;1.20;;
11171;SDS011;5642;50.830;12.082;2022-07-29T07:55:42;5.20;;;1.50;;
11171;SDS011;5642;50.830;12.082;2022-07-29T07:58:13;1.02;;;1.00;;
11171;SDS011;5642;50.830;12.082;2022-07-29T08:00:39;1.42;;;1.33;;
11171;SDS011;5642;50.830;12.082;2022-07-29T08:03:06;1.00;;;0.90;;
11171;SDS011;5642;50.830;12.082;2022-07-29T08:05:33;1.08;;;1.00;;
11171;SDS011;5642;50.830;12.082;2022-07-29T08:07:59;1.00;;;1.00;;
11171;SDS011;5642;50.830;12.082;2022-07-29T08:10:25;0.90;;;0.90;;
11171;SDS011;5642;50.830;12.082;2022-07-29T08:13:16;0.93;;;0.93;;
11171;SDS011;5642;50.830;12.082;2022-07-29T08:16:19;1.05;;;0.95;;
11171;SDS011;5642;50.830;12.082;2022-07-29T08:18:52;0.80;;;0.80;;
11171;SDS011;5642;50.830;12.082;2022-07-29T08:21:29;0.98;;;0.82;;
11171;SDS011;5642;50.830;12.082;2022-07-29T08:23:56;2.63;;;1.00;;
11171;SDS011;5642;50.830;12.082;2022-07-29T08:26:43;1.20;;;1.05;;
11171;SDS011;5642;50.830;12.082;2022-07-29T08:29:12;2.10;;;1.20;;
11171;SDS011;5642;50.830;12.082;2022-07-29T08:31:45;1.20;;;1.02;;
11171;SDS011;5642;50.830;12.082;2022-07-29T08:34:13;1.20;;;1.10;;
11171;SDS011;5642;50.830;12.082;2022-07-29T08:36:39;1.15;;;1.05;;
11171;SDS011;5642;50.830;12.082;2022-07-29T08:39:06;0.98;;;0.98;;
11171;SDS011;5642;50.830;12.082;2022-07-29T08:41:34;1.02;;;1.02;;
11171;SDS011;5642;50.830;12.082;2022-07-29T08:44:01;0.90;;;0.90;;
11171;SDS011;5642;50.830;12.082;2022-07-29T08:46:28;1.13;;;1.05;;
11171;SDS011;5642;50.830;12.082;2022-07-29T08:48:57;2.28;;;0.88;;
11171;SDS011;5642;50.830;12.082;2022-07-29T08:51:24;1.75;;;1.23;;
11171;SDS011;5642;50.830;12.082;2022-07-29T08:53:52;2.83;;;1.23;;
11171;SDS011;5642;50.830;12.082;2022-07-29T08:56:20;1.67;;;1.10;;
11171;SDS011;5642;50.830;12.082;2022-07-29T08:58:49;1.17;;;1.10;;
11171;SDS011;5642;50.830;12.082;2022-07-29T09:01:17;1.10;;;1.00;;
11171;SDS011;5642;50.830;12.082;2022-07-29T09:03:47;1.17;;;0.90;;
11171;SDS011;5642;50.830;12.082;2022-07-29T09:06:15;0.95;;;0.95;;
11171;SDS011;5642;50.830;12.082;2022-07-29T09:08:46;1.00;;;0.95;;
11171;SDS011;5642;50.830;12.082;2022-07-29T09:11:13;0.88;;;0.85;;
11171;SDS011;5642;50.830;12.082;2022-07-29T09:13:39;2.22;;;0.90;;
11171;SDS011;5642;50.830;12.082;2022-07-29T09:16:05;1.05;;;0.90;;
11171;SDS011;5642;50.830;12.082;2022-07-29T09:18:43;1.17;;;1.08;;
11171;SDS011;5642;50.830;12.082;2022-07-29T09:21:14;3.00;;;1.10;;
11171;SDS011;5642;50.830;12.082;2022-07-29T09:24:11;2.22;;;1.10;;
11171;SDS011;5642;50.830;12.082;2022-07-29T09:26:43;1.15;;;1.05;;
11171;SDS011;5642;50.830;12.082;2022-07-29T09:29:19;0.93;;;0.88;;
11171;SDS011;5642;50.830;12.082;2022-07-29T09:31:51;0.93;;;0.93;;
11171;SDS011;5642;50.830;12.082;2022-07-29T09:34:22;0.98;;;0.90;;
11171;SDS011;5642;50.830;12.082;2022-07-29T09:36:50;1.15;;;1.02;;
11171;SDS011;5642;50.830;12.082;2022-07-29T09:39:29;1.10;;;0.98;;
11171;SDS011;5642;50.830;12.082;2022-07-29T09:42:04;1.00;;;1.00;;
11171;SDS011;5642;50.830;12.082;2022-07-29T09:44:41;2.58;;;1.00;;
11171;SDS011;5642;50.830;12.082;2022-07-29T09:47:11;0.85;;;0.77;;
11171;SDS011;5642;50.830;12.082;2022-07-29T09:49:51;1.00;;;0.90;;
11171;SDS011;5642;50.830;12.082;2022-07-29T09:52:20;0.75;;;0.75;;
11171;SDS011;5642;50.830;12.082;2022-07-29T09:54:47;0.90;;;0.90;;
11171;SDS011;5642;50.830;12.082;2022-07-29T09:57:26;0.68;;;0.68;;
11171;SDS011;5642;50.830;12.082;2022-07-29T10:00:12;0.90;;;0.90;;
11171;SDS011;5642;50.830;12.082;2022-07-29T10:02:42;0.70;;;0.70;;
11171;SDS011;5642;50.830;12.082;2022-07-29T10:05:25;0.80;;;0.80;;
11171;SDS011;5642;50.830;12.082;2022-07-29T10:07:54;1.40;;;0.75;;
11171;SDS011;5642;50.830;12.082;2022-07-29T10:10:26;1.30;;;0.80;;
11171;SDS011;5642;50.830;12.082;2022-07-29T10:12:57;0.70;;;0.70;;
11171;SDS011;5642;50.830;12.082;2022-07-29T10:15:26;1.05;;;0.60;;
11171;SDS011;5642;50.830;12.082;2022-07-29T10:17:55;0.88;;;0.88;;
11171;SDS011;5642;50.830;12.082;2022-07-29T10:20:27;0.90;;;0.90;;
11171;SDS011;5642;50.830;12.082;2022-07-29T10:22:55;0.95;;;0.95;;
11171;SDS011;5642;50.830;12.082;2022-07-29T10:25:22;2.25;;;1.02;;
11171;SDS011;5642;50.830;12.082;2022-07-29T10:27:50;1.70;;;1.17;;
11171;SDS011;5642;50.830;12.082;2022-07-29T10:30:17;2.45;;;1.25;;
11171;SDS011;5642;50.830;12.082;2022-07-29T10:32:49;2.42;;;1.08;;
11171;SDS011;5642;50.830;12.082;2022-07-29T10:46:37;1.08;;;1.08;;
11171;SDS011;5642;50.830;12.082;2022-07-29T10:54:17;1.20;;;1.15;;
11171;SDS011;5642;50.830;12.082;2022-07-29T10:56:44;1.33;;;1.10;;
11171;SDS011;5642;50.830;12.082;2022-07-29T10:59:22;1.58;;;1.02;;
11171;SDS011;5642;50.830;12.082;2022-07-29T11:01:50;4.57;;;1.25;;
11171;SDS011;5642;50.830;12.082;2022-07-29T11:07:22;1.30;;;1.20;;
11171;SDS011;5642;50.830;12.082;2022-07-29T11:12:49;1.15;;;1.15;;
11171;SDS011;5642;50.830;12.082;2022-07-29T11:15:18;1.25;;;1.20;;
11171;SDS011;5642;50.830;12.082;2022-07-29T11:20:45;1.08;;;0.88;;
11171;SDS011;5642;50.830;12.082;2022-07-29T11:23:32;1.05;;;0.95;;
11171;SDS011;5642;50.830;12.082;2022-07-29T11:26:25;1.67;;;1.17;;
11171;SDS011;5642;50.830;12.082;2022-07-29T11:31:45;1.35;;;1.25;;
11171;SDS011;5642;50.830;12.082;2022-07-29T11:34:21;2.58;;;1.30;;
11171;SDS011;5642;50.830;12.082;2022-07-29T11:39:34;1.40;;;1.30;;
11171;SDS011;5642;50.830;12.082;2022-07-29T11:44:57;1.75;;;1.55;;
11171;SDS011;5642;50.830;12.082;2022-07-29T11:47:40;2.15;;;1.10;;
11171;SDS011;5642;50.830;12.082;2022-07-29T11:50:14;1.50;;;1.40;;
11171;SDS011;5642;50.830;12.082;2022-07-29T11:52:55;1.50;;;1.40;;
11171;SDS011;5642;50.830;12.082;2022-07-29T11:55:57;1.20;;;1.20;;
11171;SDS011;5642;50.830;12.082;2022-07-29T11:59:02;1.25;;;1.17;;
11171;SDS011;5642;50.830;12.082;2022-07-29T12:01:32;1.10;;;1.10;;
11171;SDS011;5642;50.830;12.082;2022-07-29T12:04:02;1.20;;;1.20;;
11171;SDS011;5642;50.830;12.082;2022-07-29T12:06:33;2.13;;;1.27;;
11171;SDS011;5642;50.830;12.082;2022-07-29T12:09:00;1.38;;;1.27;;
11171;SDS011;5642;50.830;12.082;2022-07-29T12:11:28;1.42;;;1.35;;
11171;SDS011;5642;50.830;12.082;2022-07-29T12:13:54;1.67;;;1.58;;
11171;SDS011;5642;50.830;12.082;2022-07-29T12:16:21;1.50;;;1.40;;
11171;SDS011;5642;50.830;12.082;2022-07-29T12:18:58;1.60;;;1.50;;
11171;SDS011;5642;50.830;12.082;2022-07-29T12:21:29;1.10;;;1.10;;
11171;SDS011;5642;50.830;12.082;2022-07-29T12:24:10;1.50;;;1.40;;
11171;SDS011;5642;50.830;12.082;2022-07-29T12:26:48;1.20;;;1.20;;
11171;SDS011;5642;50.830;12.082;2022-07-29T12:29:17;1.48;;;1.38;;
11171;SDS011;5642;50.830;12.082;2022-07-29T12:31:44;1.55;;;1.45;;
11171;SDS011;5642;50.830;12.082;2022-07-29T12:34:12;1.63;;;1.52;;
11171;SDS011;5642;50.830;12.082;2022-07-29T12:36:41;1.20;;;1.20;;
11171;SDS011;5642;50.830;12.082;2022-07-29T12:39:09;1.70;;;1.60;;
11171;SDS011;5642;50.830;12.082;2022-07-29T12:41:37;1.52;;;1.42;;
11171;SDS011;5642;50.830;12.082;2022-07-29T12:44:04;1.20;;;1.20;;
11171;SDS011;5642;50.830;12.082;2022-07-29T12:46:30;1.35;;;1.25;;
11171;SDS011;5642;50.830;12.082;2022-07-29T12:48:56;1.50;;;1.40;;
11171;SDS011;5642;50.830;12.082;2022-07-29T12:51:34;1.40;;;1.30;;
11171;SDS011;5642;50.830;12.082;2022-07-29T12:56:39;1.42;;;1.33;;
11171;SDS011;5642;50.830;12.082;2022-07-29T12:59:20;1.40;;;1.30;;
11171;SDS011;5642;50.830;12.082;2022-07-29T13:01:48;2.05;;;1.40;;
11171;SDS011;5642;50.830;12.082;2022-07-29T13:04:30;1.67;;;1.45;;
11171;SDS011;5642;50.830;12.082;2022-07-29T13:07:07;1.48;;;1.38;;
11171;SDS011;5642;50.830;12.082;2022-07-29T13:10:27;1.38;;;1.27;;
11171;SDS011;5642;50.830;12.082;2022-07-29T13:13:01;1.50;;;1.40;;
11171;SDS011;5642;50.830;12.082;2022-07-29T13:15:33;1.38;;;1.30;;
11171;SDS011;5642;50.830;12.082;2022-07-29T13:18:25;1.35;;;1.25;;
11171;SDS011;5642;50.830;12.082;2022-07-29T13:21:12;1.30;;;1.20;;
11171;SDS011;5642;50.830;12.082;2022-07-29T13:23:40;1.10;;;1.10;;
11171;SDS011;5642;50.830;12.082;2022-07-29T13:26:07;1.58;;;1.48;;
11171;SDS011;5642;50.830;12.082;2022-07-29T13:28:37;1.50;;;1.40;;
11171;SDS011;5642;50.830;12.082;2022-07-29T13:31:09;5.65;;;1.70;;
11171;SDS011;5642;50.830;12.082;2022-07-29T13:33:45;1.52;;;1.40;;
11171;SDS011;5642;50.830;12.082;2022-07-29T13:36:13;1.40;;;1.30;;
11171;SDS011;5642;50.830;12.082;2022-07-29T13:38:39;2.20;;;1.38;;
11171;SDS011;5642;50.830;12.082;2022-07-29T13:41:05;2.65;;;1.50;;
11171;SDS011;5642;50.830;12.082;2022-07-29T13:43:32;3.22;;;1.27;;
11171;SDS011;5642;50.830;12.082;2022-07-29T13:46:11;1.33;;;1.23;;
11171;SDS011;5642;50.830;12.082;2022-07-29T13:48:42;1.40;;;1.27;;
11171;SDS011;5642;50.830;12.082;2022-07-29T13:51:09;1.45;;;1.35;;
11171;SDS011;5642;50.830;12.082;2022-07-29T13:53:36;1.50;;;1.40;;
11171;SDS011;5642;50.830;12.082;2022-07-29T13:56:03;1.67;;;1.58;;
11171;SDS011;5642;50.830;12.082;2022-07-29T13:58:32;1.83;;;1.50;;
11171;SDS011;5642;50.830;12.082;2022-07-29T14:01:01;1.10;;;1.10;;
11171;SDS011;5642;50.830;12.082;2022-07-29T14:03:27;1.40;;;1.30;;
11171;SDS011;5642;50.830;12.082;2022-07-29T14:05:53;1.83;;;1.40;;
11171;SDS011;5642;50.830;12.082;2022-07-29T14:08:20;1.42;;;1.30;;
11171;SDS011;5642;50.830;12.082;2022-07-29T14:10:47;1.60;;;1.50;;
11171;SDS011;5642;50.830;12.082;2022-07-29T14:13:15;1.45;;;1.35;;
11171;SDS011;5642;50.830;12.082;2022-07-29T14:15:49;1.60;;;1.50;;
11171;SDS011;5642;50.830;12.082;2022-07-29T14:18:21;1.52;;;1.42;;
11171;SDS011;5642;50.830;12.082;2022-07-29T14:20:54;1.30;;;1.20;;
11171;SDS011;5642;50.830;12.082;2022-07-29T14:23:29;2.00;;;1.60;;
11171;SDS011;5642;50.830;12.082;2022-07-29T14:25:56;1.27;;;1.17;;
11171;SDS011;5642;50.830;12.082;2022-07-29T14:28:22;1.70;;;1.27;;
11171;SDS011;5642;50.830;12.082;2022-07-29T14:31:01;1.45;;;1.15;;
11171;SDS011;5642;50.830;12.082;2022-07-29T14:33:51;1.10;;;1.10;;
11171;SDS011;5642;50.830;12.082;2022-07-29T14:36:23;1.13;;;1.13;;
11171;SDS011;5642;50.830;12.082;2022-07-29T14:38:53;1.02;;;1.00;;
11171;SDS011;5642;50.830;12.082;2022-07-29T14:41:27;1.00;;;1.00;;
11171;SDS011;5642;50.830;12.082;2022-07-29T14:44:00;1.20;;;1.10;;
11171;SDS011;5642;50.830;12.082;2022-07-29T14:46:28;1.05;;;1.00;;
11171;SDS011;5642;50.830;12.082;2022-07-29T14:48:54;1.10;;;0.82;;
11171;SDS011;5642;50.830;12.082;2022-07-29T14:51:22;0.75;;;0.75;;
11171;SDS011;5642;50.830;12.082;2022-07-29T14:53:48;0.90;;;0.90;;
11171;SDS011;5642;50.830;12.082;2022-07-29T14:56:14;0.98;;;0.98;;
11171;SDS011;5642;50.830;12.082;2022-07-29T14:58:40;1.13;;;1.02;;
11171;SDS011;5642;50.830;12.082;2022-07-29T15:01:08;1.00;;;1.00;;
11171;SDS011;5642;50.830;12.082;2022-07-29T15:03:43;1.35;;;1.00;;
11171;SDS011;5642;50.830;12.082;2022-07-29T15:06:35;0.88;;;0.88;;
11171;SDS011;5642;50.830;12.082;2022-07-29T15:09:02;0.90;;;0.88;;
11171;SDS011;5642;50.830;12.082;2022-07-29T15:11:28;1.00;;;1.00;;
11171;SDS011;5642;50.830;12.082;2022-07-29T15:13:54;0.90;;;0.90;;
11171;SDS011;5642;50.830;12.082;2022-07-29T15:16:23;1.27;;;1.10;;
11171;SDS011;5642;50.830;12.082;2022-07-29T15:18:49;2.15;;;1.00;;
11171;SDS011;5642;50.830;12.082;2022-07-29T15:21:15;1.20;;;1.10;;
11171;SDS011;5642;50.830;12.082;2022-07-29T15:23:41;1.30;;;1.20;;
11171;SDS011;5642;50.830;12.082;2022-07-29T15:26:08;1.23;;;1.05;;
11171;SDS011;5642;50.830;12.082;2022-07-29T15:28:35;1.65;;;0.82;;
11171;SDS011;5642;50.830;12.082;2022-07-29T15:31:03;1.08;;;1.00;;
11171;SDS011;5642;50.830;12.082;2022-07-29T15:33:39;1.00;;;1.00;;
11171;SDS011;5642;50.830;12.082;2022-07-29T15:36:11;1.25;;;1.23;;
11171;SDS011;5642;50.830;12.082;2022-07-29T15:38:39;1.08;;;1.08;;
11171;SDS011;5642;50.830;12.082;2022-07-29T15:41:06;1.30;;;1.20;;
11171;SDS011;5642;50.830;12.082;2022-07-29T15:43:33;1.70;;;1.10;;
11171;SDS011;5642;50.830;12.082;2022-07-29T15:46:01;1.00;;;1.00;;
11171;SDS011;5642;50.830;12.082;2022-07-29T15:48:45;1.35;;;1.25;;
11171;SDS011;5642;50.830;12.082;2022-07-29T15:51:12;1.30;;;1.20;;
11171;SDS011;5642;50.830;12.082;2022-07-29T15:53:38;1.20;;;1.20;;
11171;SDS011;5642;50.830;12.082;2022-07-29T15:56:04;1.20;;;1.10;;
11171;SDS011;5642;50.830;12.082;2022-07-29T15:58:30;1.30;;;1.20;;
11171;SDS011;5642;50.830;12.082;2022-07-29T16:00:56;1.00;;;0.90;;
11171;SDS011;5642;50.830;12.082;2022-07-29T16:03:22;1.10;;;1.10;;
11171;SDS011;5642;50.830;12.082;2022-07-29T16:05:49;1.10;;;1.00;;
11171;SDS011;5642;50.830;12.082;2022-07-29T16:08:15;0.90;;;0.90;;
11171;SDS011;5642;50.830;12.082;2022-07-29T16:10:42;1.20;;;1.10;;
11171;SDS011;5642;50.830;12.082;2022-07-29T16:13:11;1.30;;;1.20;;
11171;SDS011;5642;50.830;12.082;2022-07-29T16:15:40;1.48;;;1.10;;
11171;SDS011;5642;50.830;12.082;2022-07-29T16:18:06;1.20;;;1.10;;
11171;SDS011;5642;50.830;12.082;2022-07-29T16:20:35;1.05;;;1.05;;
11171;SDS011;5642;50.830;12.082;2022-07-29T16:23:02;1.27;;;1.17;;
11171;SDS011;5642;50.830;12.082;2022-07-29T16:25:28;1.02;;;1.02;;
11171;SDS011;5642;50.830;12.082;2022-07-29T16:27:54;1.33;;;1.23;;
11171;SDS011;5642;50.830;12.082;2022-07-29T16:30:20;1.20;;;1.10;;
11171;SDS011;5642;50.830;12.082;2022-07-29T16:32:50;1.48;;;1.25;;
11171;SDS011;5642;50.830;12.082;2022-07-29T16:35:26;1.45;;;1.35;;
11171;SDS011;5642;50.830;12.082;2022-07-29T16:38:07;1.20;;;1.10;;
11171;SDS011;5642;50.830;12.082;2022-07-29T16:40:33;1.50;;;1.40;;
11171;SDS011;5642;50.830;12.082;2022-07-29T16:43:01;1.33;;;1.23;;
11171;SDS011;5642;50.830;12.082;2022-07-29T16:45:34;1.45;;;1.40;;
11171;SDS011;5642;50.830;12.082;2022-07-29T16:48:02;1.60;;;1.50;;
11171;SDS011;5642;50.830;12.082;2022-07-29T16:50:28;2.03;;;1.75;;
11171;SDS011;5642;50.830;12.082;2022-07-29T16:53:04;1.52;;;1.42;;
11171;SDS011;5642;50.830;12.082;2022-07-29T16:55:42;1.20;;;1.20;;
11171;SDS011;5642;50.830;12.082;2022-07-29T16:58:08;1.30;;;1.20;;
11171;SDS011;5642;50.830;12.082;2022-07-29T17:00:38;1.52;;;1.42;;
11171;SDS011;5642;50.830;12.082;2022-07-29T17:03:05;1.33;;;1.27;;
11171;SDS011;5642;50.830;12.082;2022-07-29T17:05:31;1.50;;;1.40;;
11171;SDS011;5642;50.830;12.082;2022-07-29T17:08:05;1.55;;;1.45;;
11171;SDS011;5642;50.830;12.082;2022-07-29T17:10:36;1.35;;;1.25;;
11171;SDS011;5642;50.830;12.082;2022-07-29T17:13:18;1.52;;;1.40;;
11171;SDS011;5642;50.830;12.082;2022-07-29T17:15:45;1.38;;;1.27;;
11171;SDS011;5642;50.830;12.082;2022-07-29T17:18:10;1.05;;;1.05;;
11171;SDS011;5642;50.830;12.082;2022-07-29T17:20:39;1.48;;;1.20;;
11171;SDS011;5642;50.830;12.082;2022-07-29T17:23:06;2.05;;;1.30;;
11171;SDS011;5642;50.830;12.082;2022-07-29T17:25:32;1.17;;;1.17;;
11171;SDS011;5642;50.830;12.082;2022-07-29T17:27:58;1.20;;;1.20;;
11171;SDS011;5642;50.830;12.082;2022-07-29T17:30:25;2.55;;;1.35;;
11171;SDS011;5642;50.830;12.082;2022-07-29T17:32:51;1.20;;;1.20;;
11171;SDS011;5642;50.830;12.082;2022-07-29T17:35:17;1.58;;;1.13;;
11171;SDS011;5642;50.830;12.082;2022-07-29T17:38:04;1.10;;;1.00;;
11171;SDS011;5642;50.830;12.082;2022-07-29T17:40:30;1.00;;;1.00;;
11171;SDS011;5642;50.830;12.082;2022-07-29T17:42:56;1.30;;;1.20;;
11171;SDS011;5642;50.830;12.082;2022-07-29T17:45:23;1.25;;;1.15;;
11171;SDS011;5642;50.830;12.082;2022-07-29T17:47:59;1.10;;;1.10;;
11171;SDS011;5642;50.830;12.082;2022-07-29T17:50:28;1.10;;;1.10;;
11171;SDS011;5642;50.830;12.082;2022-07-29T17:53:04;1.05;;;1.05;;
11171;SDS011;5642;50.830;12.082;2022-07-29T17:55:35;1.30;;;1.20;;
11171;SDS011;5642;50.830;12.082;2022-07-29T17:58:06;1.20;;;1.20;;
11171;SDS011;5642;50.830;12.082;2022-07-29T18:00:34;1.42;;;1.33;;
11171;SDS011;5642;50.830;12.082;2022-07-29T18:03:02;1.40;;;1.30;;
11171;SDS011;5642;50.830;12.082;2022-07-29T18:05:28;1.27;;;1.17;;
11171;SDS011;5642;50.830;12.082;2022-07-29T18:07:54;1.33;;;1.23;;
11171;SDS011;5642;50.830;12.082;2022-07-29T18:10:21;1.50;;;1.40;;
11171;SDS011;5642;50.830;12.082;2022-07-29T18:12:47;1.63;;;1.52;;
11171;SDS011;5642;50.830;12.082;2022-07-29T18:15:13;1.70;;;1.40;;
11171;SDS011;5642;50.830;12.082;2022-07-29T18:17:39;1.23;;;1.23;;
11171;SDS011;5642;50.830;12.082;2022-07-29T18:20:06;1.38;;;1.25;;
11171;SDS011;5642;50.830;12.082;2022-07-29T18:22:32;1.48;;;1.35;;
11171;SDS011;5642;50.830;12.082;2022-07-29T18:24:58;1.40;;;1.30;;
11171;SDS011;5642;50.830;12.082;2022-07-29T18:27:25;1.33;;;1.25;;
11171;SDS011;5642;50.830;12.082;2022-07-29T18:30:00;1.27;;;1.17;;
11171;SDS011;5642;50.830;12.082;2022-07-29T18:32:30;1.60;;;1.40;;
11171;SDS011;5642;50.830;12.082;2022-07-29T18:35:01;1.30;;;1.20;;
11171;SDS011;5642;50.830;12.082;2022-07-29T18:37:30;1.40;;;1.30;;
11171;SDS011;5642;50.830;12.082;2022-07-29T18:39:56;1.50;;;1.40;;
11171;SDS011;5642;50.830;12.082;2022-07-29T18:42:22;1.60;;;1.50;;
11171;SDS011;5642;50.830;12.082;2022-07-29T18:44:48;1.70;;;1.60;;
11171;SDS011;5642;50.830;12.082;2022-07-29T18:47:23;1.60;;;1.42;;
11171;SDS011;5642;50.830;12.082;2022-07-29T18:49:49;1.73;;;1.63;;
11171;SDS011;5642;50.830;12.082;2022-07-29T18:52:18;1.75;;;1.65;;
11171;SDS011;5642;50.830;12.082;2022-07-29T18:54:44;1.58;;;1.48;;